Time;durP1;ratioP1;P1;durP2;ratioP2;P2;SDS_P1;SDS_P2;PMS_P1;PMS_P2;Temp;Humidity;BMP_temperature;BMP_pressure;BME280_temperature;BME280_humidity;BME280_pressure;Samples;Min_cycle;Max_cycle;Signal;HPM_P1;HPM_P2
2023/06/30 00:01:26;;;;;;;9.35;6.20;;;21.60;99.90;;;;;;4937604;29;20039;-62
2023/06/30 00:03:52;;;;;;;11.68;8.50;;;21.60;99.90;;;;;;4939045;29;20043;-62
2023/06/30 00:06:18;;;;;;;12.10;7.63;;;21.50;99.90;;;;;;4937397;29;20031;-62
2023/06/30 00:08:44;;;;;;;13.52;8.90;;;21.50;99.90;;;;;;4936450;29;20522;-62
2023/06/30 00:11:10;;;;;;;13.23;8.70;;;21.40;99.90;;;;;;4920265;29;20049;-61
2023/06/30 00:13:36;;;;;;;13.63;9.65;;;21.40;99.90;;;;;;4936398;29;20066;-61
2023/06/30 00:16:02;;;;;;;11.80;8.57;;;21.30;99.90;;;;;;4937393;29;20118;-61
2023/06/30 00:18:29;;;;;;;13.40;9.05;;;21.30;99.90;;;;;;4937114;29;20036;-61
2023/06/30 00:20:55;;;;;;;12.32;8.18;;;21.30;99.90;;;;;;4938390;29;20031;-61
2023/06/30 00:23:21;;;;;;;12.85;8.55;;;21.30;99.90;;;;;;4935618;29;20038;-61
2023/06/30 00:25:47;;;;;;;13.45;9.38;;;21.30;99.90;;;;;;4936152;29;20051;-63
2023/06/30 00:28:13;;;;;;;17.33;10.43;;;21.20;99.90;;;;;;4937007;29;20031;-63
2023/06/30 00:30:39;;;;;;;16.17;10.07;;;21.20;99.90;;;;;;4936052;29;20111;-64
2023/06/30 00:33:05;;;;;;;13.73;9.60;;;21.10;99.90;;;;;;4936373;29;20036;-64
2023/06/30 00:35:31;;;;;;;14.55;10.93;;;21.10;99.90;;;;;;4918967;29;20032;-64
2023/06/30 00:37:56;;;;;;;15.68;10.68;;;21.10;99.90;;;;;;4936836;29;20030;-64
2023/06/30 00:40:22;;;;;;;17.30;10.70;;;21.10;99.90;;;;;;4924444;29;20035;-64
2023/06/30 00:42:48;;;;;;;17.98;10.82;;;21.10;99.90;;;;;;4930944;28;20055;-64
2023/06/30 00:45:13;;;;;;;15.73;10.88;;;21.10;99.90;;;;;;4945070;28;20031;-64
2023/06/30 00:47:40;;;;;;;15.15;10.30;;;21.10;99.90;;;;;;4918801;29;20024;-64
2023/06/30 00:50:07;;;;;;;16.05;10.38;;;21.10;99.90;;;;;;4918740;29;20085;-64
2023/06/30 00:52:33;;;;;;;14.57;10.35;;;21.00;99.90;;;;;;4922940;29;20034;-63
2023/06/30 00:54:59;;;;;;;16.17;10.23;;;21.00;99.90;;;;;;4920976;29;20031;-64
2023/06/30 00:57:24;;;;;;;16.75;10.43;;;21.00;99.90;;;;;;4924211;29;20486;-63
2023/06/30 00:59:50;;;;;;;14.98;11.05;;;20.90;99.90;;;;;;4939180;28;20081;-64
2023/06/30 01:02:27;;;;;;;13.02;10.23;;;20.90;99.90;;;;;;4941331;29;20035;-63
2023/06/30 01:04:56;;;;;;;17.95;11.00;;;20.90;99.90;;;;;;4940328;28;20127;-63
2023/06/30 01:07:37;;;;;;;17.25;10.60;;;20.90;99.90;;;;;;4941284;28;20511;-64
2023/06/30 01:10:15;;;;;;;15.93;10.60;;;20.80;99.90;;;;;;4937799;28;20038;-63
2023/06/30 01:12:43;;;;;;;16.42;11.43;;;20.80;99.90;;;;;;4935746;29;20038;-64
2023/06/30 01:15:12;;;;;;;17.48;11.63;;;20.80;99.90;;;;;;4936273;29;20562;-64
2023/06/30 01:17:46;;;;;;;16.98;11.00;;;20.80;99.90;;;;;;4948169;28;20032;-64
2023/06/30 01:20:13;;;;;;;15.73;10.68;;;20.80;99.90;;;;;;4934178;28;20023;-64
2023/06/30 01:22:46;;;;;;;14.70;10.57;;;20.80;99.90;;;;;;4934617;28;20051;-64
2023/06/30 01:25:25;;;;;;;17.27;11.27;;;20.70;99.90;;;;;;4935647;29;20031;-64
2023/06/30 01:27:52;;;;;;;17.55;10.88;;;20.80;99.90;;;;;;4934634;29;20102;-64
2023/06/30 01:30:19;;;;;;;15.63;10.00;;;20.70;99.90;;;;;;4933803;29;20404;-64
2023/06/30 01:32:45;;;;;;;15.32;10.45;;;20.70;99.90;;;;;;4936401;29;20055;-64
2023/06/30 01:35:12;;;;;;;13.25;9.88;;;20.70;99.90;;;;;;4933427;28;20373;-64
2023/06/30 01:37:37;;;;;;;15.15;10.70;;;20.70;99.90;;;;;;4935944;29;20035;-64
2023/06/30 01:40:04;;;;;;;15.05;10.40;;;20.70;99.90;;;;;;4939472;29;20552;-64
2023/06/30 01:42:31;;;;;;;18.10;12.25;;;20.70;99.90;;;;;;4940974;29;20122;-64
2023/06/30 01:44:59;;;;;;;15.63;10.85;;;20.70;99.90;;;;;;4939501;29;20046;-64
2023/06/30 01:47:25;;;;;;;17.65;11.52;;;20.70;99.90;;;;;;4922782;29;20039;-64
2023/06/30 01:49:51;;;;;;;23.67;12.93;;;20.70;99.90;;;;;;4922877;29;20184;-64
2023/06/30 01:52:18;;;;;;;16.55;10.95;;;20.60;99.90;;;;;;4925421;29;20066;-64
2023/06/30 01:54:43;;;;;;;17.52;11.63;;;20.60;99.90;;;;;;4928448;29;20035;-64
2023/06/30 01:57:11;;;;;;;17.95;11.77;;;20.60;99.90;;;;;;4938826;29;20038;-64
2023/06/30 01:59:36;;;;;;;19.08;12.23;;;20.60;99.90;;;;;;4937789;29;20399;-64
2023/06/30 02:02:02;;;;;;;18.42;11.52;;;20.60;99.90;;;;;;4920983;29;20024;-64
2023/06/30 02:04:28;;;;;;;17.52;11.38;;;20.60;99.90;;;;;;4936097;29;20066;-64
2023/06/30 02:06:55;;;;;;;18.52;12.68;;;20.50;99.90;;;;;;4920743;29;20039;-64
2023/06/30 02:09:21;;;;;;;18.55;12.48;;;20.50;99.90;;;;;;4941350;29;20035;-64
2023/06/30 02:11:46;;;;;;;18.50;12.23;;;20.60;99.90;;;;;;4924931;29;20062;-64
2023/06/30 02:14:15;;;;;;;17.23;11.15;;;20.60;99.90;;;;;;4923481;29;20093;-64
2023/06/30 02:16:41;;;;;;;17.70;11.18;;;20.50;99.90;;;;;;4941822;29;20532;-64
2023/06/30 02:19:06;;;;;;;17.15;11.48;;;20.60;99.90;;;;;;4920423;29;20034;-64
2023/06/30 02:21:34;;;;;;;16.23;11.23;;;20.50;99.90;;;;;;4937510;29;20462;-64
2023/06/30 02:23:59;;;;;;;19.52;12.38;;;20.50;99.90;;;;;;4937034;28;20037;-64
2023/06/30 02:26:25;;;;;;;15.90;10.95;;;20.50;99.90;;;;;;4936810;29;20084;-64
2023/06/30 02:28:51;;;;;;;19.88;11.82;;;20.50;99.90;;;;;;4937402;29;20038;-64
2023/06/30 02:31:17;;;;;;;18.08;11.65;;;20.50;99.90;;;;;;4936233;29;20046;-64
2023/06/30 02:33:42;;;;;;;17.20;10.30;;;20.40;99.90;;;;;;4939166;29;20127;-64
2023/06/30 02:36:08;;;;;;;16.05;11.05;;;20.40;99.90;;;;;;4938395;29;20027;-64
2023/06/30 02:38:34;;;;;;;17.17;11.30;;;20.40;99.90;;;;;;4937038;29;20067;-64
2023/06/30 02:41:00;;;;;;;17.15;11.00;;;20.40;99.90;;;;;;4937682;29;20030;-64
2023/06/30 02:43:27;;;;;;;19.52;12.30;;;20.40;99.90;;;;;;4941687;28;20090;-64
2023/06/30 02:45:53;;;;;;;17.20;11.63;;;20.30;99.90;;;;;;4933555;29;20447;-64
2023/06/30 02:48:19;;;;;;;15.07;10.73;;;20.30;99.90;;;;;;4919666;29;20065;-64
2023/06/30 02:50:45;;;;;;;18.73;11.93;;;20.30;99.90;;;;;;4936585;29;20573;-64
2023/06/30 02:53:13;;;;;;;17.70;11.68;;;20.30;99.90;;;;;;4920786;29;20518;-64
2023/06/30 02:55:39;;;;;;;19.80;12.07;;;20.20;99.90;;;;;;4935771;29;20027;-64
2023/06/30 02:58:06;;;;;;;17.20;11.90;;;20.20;99.90;;;;;;4921065;29;20526;-63
2023/06/30 03:00:34;;;;;;;18.30;12.73;;;20.20;99.90;;;;;;4921032;29;20125;-64
2023/06/30 03:03:00;;;;;;;18.50;12.05;;;20.20;99.90;;;;;;4937531;29;20028;-63
2023/06/30 03:05:26;;;;;;;17.90;11.82;;;20.20;99.90;;;;;;4936145;29;20039;-63
2023/06/30 03:07:52;;;;;;;17.55;11.80;;;20.10;99.90;;;;;;4937758;29;20110;-63
2023/06/30 03:10:19;;;;;;;16.45;11.65;;;20.10;99.90;;;;;;4917642;28;20491;-63
2023/06/30 03:12:45;;;;;;;20.20;12.43;;;20.00;99.90;;;;;;4930039;29;20030;-63
2023/06/30 03:15:11;;;;;;;18.85;11.82;;;20.00;99.90;;;;;;4919093;29;20040;-63
2023/06/30 03:17:37;;;;;;;17.58;12.35;;;20.00;99.90;;;;;;4940111;28;20047;-63
2023/06/30 03:20:10;;;;;;;19.80;11.63;;;20.00;99.90;;;;;;4937932;28;20055;-63
2023/06/30 03:22:39;;;;;;;18.42;11.52;;;20.00;99.90;;;;;;4944616;28;20047;-63
2023/06/30 03:25:05;;;;;;;17.98;10.93;;;20.00;99.90;;;;;;4925897;29;20081;-63
2023/06/30 03:27:32;;;;;;;16.40;10.82;;;20.00;99.90;;;;;;4926728;29;20035;-63
2023/06/30 03:29:58;;;;;;;15.35;11.07;;;20.00;99.90;;;;;;4924261;29;20027;-63
2023/06/30 03:32:24;;;;;;;15.85;10.73;;;20.00;99.90;;;;;;4936940;28;20403;-63
2023/06/30 03:34:51;;;;;;;17.10;11.25;;;20.10;99.90;;;;;;4919554;29;20023;-63
2023/06/30 03:37:16;;;;;;;15.50;10.77;;;20.00;99.90;;;;;;4941961;29;20839;-63
2023/06/30 03:39:42;;;;;;;18.67;11.57;;;20.10;99.90;;;;;;4943871;28;20138;-63
2023/06/30 03:42:08;;;;;;;15.18;10.77;;;20.10;99.90;;;;;;4923431;29;20490;-63
2023/06/30 03:44:37;;;;;;;15.77;10.50;;;20.10;99.90;;;;;;4935305;29;20039;-63
2023/06/30 03:47:04;;;;;;;17.20;11.35;;;20.10;99.90;;;;;;4919706;29;20035;-63
2023/06/30 03:49:30;;;;;;;15.13;11.05;;;20.20;99.90;;;;;;4935842;29;20043;-63
2023/06/30 03:51:56;;;;;;;15.07;10.50;;;20.20;99.90;;;;;;4916471;29;20392;-63
2023/06/30 03:54:22;;;;;;;16.65;11.15;;;20.20;99.90;;;;;;4940663;29;20041;-63
2023/06/30 03:56:47;;;;;;;16.75;10.68;;;20.20;99.90;;;;;;4935321;29;20028;-62
2023/06/30 03:59:14;;;;;;;19.30;11.30;;;20.20;99.90;;;;;;4935735;28;20028;-62
2023/06/30 04:01:40;;;;;;;15.27;10.80;;;20.30;99.90;;;;;;4937620;29;20110;-62
2023/06/30 04:04:06;;;;;;;15.55;10.50;;;20.30;99.90;;;;;;4936656;29;20035;-62
2023/06/30 04:06:33;;;;;;;16.33;11.25;;;20.30;99.90;;;;;;4935460;29;20606;-62
2023/06/30 04:09:03;;;;;;;15.10;10.77;;;20.40;99.90;;;;;;4936769;29;20070;-62
2023/06/30 04:11:29;;;;;;;17.40;11.98;;;20.40;99.90;;;;;;4936266;29;20054;-62
2023/06/30 04:13:56;;;;;;;18.45;11.75;;;20.40;99.90;;;;;;4937469;29;20479;-62
2023/06/30 04:16:21;;;;;;;16.73;11.40;;;20.40;99.90;;;;;;4935811;29;20062;-62
2023/06/30 04:18:47;;;;;;;15.32;10.57;;;20.40;99.90;;;;;;4936197;29;20467;-62
2023/06/30 04:21:13;;;;;;;18.95;11.60;;;20.50;99.90;;;;;;4935347;29;20023;-62
2023/06/30 04:23:40;;;;;;;15.85;11.60;;;20.60;99.90;;;;;;4935645;29;20035;-63
2023/06/30 04:26:06;;;;;;;18.13;11.13;;;20.60;99.90;;;;;;4935398;29;20125;-62
2023/06/30 04:28:32;;;;;;;14.60;10.68;;;20.70;99.90;;;;;;4937608;29;20138;-62
2023/06/30 04:31:03;;;;;;;16.27;11.25;;;20.70;99.90;;;;;;4944508;28;20042;-62
2023/06/30 04:33:29;;;;;;;16.92;12.00;;;20.80;99.90;;;;;;4937609;28;20031;-63
2023/06/30 04:35:54;;;;;;;18.48;11.88;;;20.80;99.90;;;;;;4936722;29;20030;-62
2023/06/30 04:38:20;;;;;;;17.00;11.70;;;20.90;99.90;;;;;;4934430;29;20851;-63
2023/06/30 04:40:49;;;;;;;18.10;12.50;;;20.90;99.90;;;;;;4936283;29;20581;-63
2023/06/30 04:43:15;;;;;;;17.75;12.07;;;21.00;99.90;;;;;;4935195;28;20095;-63
2023/06/30 04:45:41;;;;;;;14.90;10.60;;;21.10;99.90;;;;;;4939303;29;20039;-62
2023/06/30 04:48:07;;;;;;;15.00;10.38;;;21.10;99.90;;;;;;4937526;29;20118;-63
2023/06/30 04:50:34;;;;;;;17.38;11.50;;;21.20;99.90;;;;;;4933531;29;20119;-62
2023/06/30 04:53:00;;;;;;;15.82;11.23;;;21.20;99.90;;;;;;4939039;29;20035;-63
2023/06/30 04:55:26;;;;;;;17.08;11.32;;;21.30;99.90;;;;;;4933585;29;20448;-63
2023/06/30 04:57:56;;;;;;;19.15;12.88;;;21.30;99.90;;;;;;4936835;29;20066;-63
2023/06/30 05:00:23;;;;;;;16.48;11.63;;;21.30;99.90;;;;;;4934702;29;20040;-63
2023/06/30 05:02:49;;;;;;;21.27;12.45;;;21.40;99.90;;;;;;4936232;28;20606;-63
2023/06/30 05:05:15;;;;;;;17.65;11.48;;;21.50;99.90;;;;;;4937653;29;20046;-63
2023/06/30 05:07:41;;;;;;;15.10;10.70;;;21.60;99.90;;;;;;4933322;29;20047;-63
2023/06/30 05:10:08;;;;;;;17.38;11.52;;;21.70;99.90;;;;;;4936364;29;20103;-63
2023/06/30 05:12:34;;;;;;;17.20;11.93;;;21.80;99.90;;;;;;4931853;29;20440;-63
2023/06/30 05:15:00;;;;;;;17.05;12.07;;;21.90;99.90;;;;;;4936398;29;20055;-63
2023/06/30 05:17:26;;;;;;;13.68;10.40;;;21.90;99.90;;;;;;4921420;29;20046;-63
2023/06/30 05:19:52;;;;;;;16.30;10.90;;;22.10;99.90;;;;;;4936368;29;20042;-63
2023/06/30 05:22:17;;;;;;;14.85;10.73;;;22.20;99.90;;;;;;4933841;29;20055;-63
2023/06/30 05:24:43;;;;;;;17.95;10.90;;;22.30;99.90;;;;;;4936835;29;20031;-63
2023/06/30 05:27:09;;;;;;;21.90;13.48;;;22.40;99.90;;;;;;4936212;28;20039;-63
2023/06/30 05:29:35;;;;;;;18.75;12.77;;;22.50;99.90;;;;;;4937044;28;20039;-63
2023/06/30 05:32:00;;;;;;;16.23;11.95;;;22.50;99.90;;;;;;4936928;28;20039;-63
2023/06/30 05:34:26;;;;;;;16.10;10.95;;;22.50;99.90;;;;;;4935433;28;20048;-63
2023/06/30 05:36:52;;;;;;;16.77;11.88;;;22.60;99.90;;;;;;4935977;29;20031;-63
2023/06/30 05:39:18;;;;;;;15.05;10.75;;;22.70;99.90;;;;;;4936510;28;20035;-63
2023/06/30 05:41:44;;;;;;;16.65;10.85;;;22.70;99.90;;;;;;4918435;29;20055;-63
2023/06/30 05:44:09;;;;;;;16.08;10.30;;;22.80;99.90;;;;;;4937912;28;20035;-63
2023/06/30 05:46:39;;;;;;;13.90;9.80;;;22.90;99.90;;;;;;4938437;28;20040;-64
2023/06/30 05:49:05;;;;;;;15.15;10.50;;;22.90;99.90;;;;;;4940514;28;20039;-63
2023/06/30 05:51:35;;;;;;;14.27;9.35;;;22.90;99.90;;;;;;4939800;28;20087;-63
2023/06/30 05:54:02;;;;;;;14.02;9.40;;;22.90;99.90;;;;;;4922229;29;20030;-63
2023/06/30 05:56:29;;;;;;;16.05;10.40;;;23.00;99.90;;;;;;4937344;28;20626;-63
2023/06/30 05:58:55;;;;;;;17.35;10.55;;;23.00;99.90;;;;;;4937275;29;20399;-63
2023/06/30 06:01:21;;;;;;;14.88;10.32;;;23.00;99.90;;;;;;4934865;29;20031;-63
2023/06/30 06:03:48;;;;;;;17.90;10.52;;;23.00;99.90;;;;;;4941376;28;20038;-63
2023/06/30 06:06:14;;;;;;;14.77;9.95;;;23.00;99.90;;;;;;4937528;28;20062;-63
2023/06/30 06:08:42;;;;;;;16.42;10.77;;;23.00;99.90;;;;;;4935141;29;20499;-63
2023/06/30 06:11:08;;;;;;;15.93;9.77;;;22.90;99.90;;;;;;4933226;29;20414;-63
2023/06/30 06:13:35;;;;;;;14.23;9.38;;;22.90;99.90;;;;;;4934614;28;20035;-63
2023/06/30 06:16:02;;;;;;;14.88;10.15;;;22.80;99.90;;;;;;4937266;29;20027;-63
2023/06/30 06:18:28;;;;;;;17.10;11.52;;;22.80;99.90;;;;;;4934225;29;20161;-64
2023/06/30 06:20:55;;;;;;;15.82;10.52;;;22.80;99.90;;;;;;4941802;28;20106;-63
2023/06/30 06:23:21;;;;;;;16.17;10.68;;;22.80;99.90;;;;;;4937978;28;20479;-63
2023/06/30 06:25:47;;;;;;;16.58;11.23;;;22.80;99.90;;;;;;4939032;29;20035;-63
2023/06/30 06:28:13;;;;;;;14.32;10.73;;;22.80;99.90;;;;;;4941266;29;20043;-63
2023/06/30 06:30:39;;;;;;;17.88;11.73;;;22.90;99.90;;;;;;4939405;29;20031;-63
2023/06/30 06:33:05;;;;;;;17.52;10.75;;;23.00;99.90;;;;;;4936945;28;20032;-63
2023/06/30 06:35:31;;;;;;;17.42;11.70;;;23.10;99.90;;;;;;4940082;29;20035;-63
2023/06/30 06:37:57;;;;;;;18.83;11.57;;;23.10;99.90;;;;;;4938941;29;20332;-63
2023/06/30 06:40:23;;;;;;;17.65;11.57;;;23.20;99.90;;;;;;4936771;29;20606;-64
2023/06/30 06:42:48;;;;;;;18.08;12.35;;;23.30;99.90;;;;;;4938522;29;20027;-63
2023/06/30 06:45:14;;;;;;;18.98;12.50;;;23.40;99.90;;;;;;4937213;29;20099;-63
2023/06/30 06:48:18;;;;;;;16.48;11.23;;;23.50;99.90;;;;;;4939941;29;20086;-63
2023/06/30 06:50:45;;;;;;;23.58;12.57;;;23.50;99.90;;;;;;4942219;29;20031;-63
2023/06/30 06:53:16;;;;;;;16.35;10.60;;;23.60;99.90;;;;;;4942081;29;20508;-63
2023/06/30 06:55:42;;;;;;;17.75;11.35;;;23.60;99.90;;;;;;4939677;28;20027;-62
2023/06/30 06:58:08;;;;;;;16.88;10.68;;;23.50;99.90;;;;;;4938658;29;20499;-63
2023/06/30 07:00:34;;;;;;;17.25;11.98;;;23.50;99.90;;;;;;4936464;29;20626;-63
2023/06/30 07:02:59;;;;;;;16.58;11.60;;;23.40;99.90;;;;;;4937857;29;20027;-63
2023/06/30 07:05:25;;;;;;;17.23;11.50;;;23.40;99.90;;;;;;4922669;29;20295;-62
2023/06/30 07:07:51;;;;;;;16.85;11.40;;;23.30;99.90;;;;;;4938560;29;20031;-63
2023/06/30 07:10:17;;;;;;;19.05;11.63;;;23.20;99.90;;;;;;4939457;29;20034;-63
2023/06/30 07:12:42;;;;;;;19.08;11.52;;;23.20;99.90;;;;;;4935888;29;20032;-63
2023/06/30 07:15:09;;;;;;;15.50;11.35;;;23.20;99.90;;;;;;4938780;29;20031;-63
2023/06/30 07:17:34;;;;;;;21.80;13.20;;;23.20;99.90;;;;;;4937820;28;20064;-63
2023/06/30 07:20:00;;;;;;;20.17;13.13;;;23.20;99.90;;;;;;4940958;28;20027;-63
2023/06/30 07:22:26;;;;;;;23.42;13.93;;;23.30;99.90;;;;;;4937331;28;20039;-63
2023/06/30 07:24:52;;;;;;;21.13;13.57;;;23.40;99.90;;;;;;4938491;29;20035;-62
2023/06/30 07:27:17;;;;;;;17.67;12.57;;;23.50;99.90;;;;;;4939579;29;20043;-62
2023/06/30 07:29:43;;;;;;;18.92;12.55;;;23.50;99.90;;;;;;4936230;29;20035;-62
2023/06/30 07:32:09;;;;;;;22.77;14.18;;;23.50;99.90;;;;;;4939116;29;20023;-63
2023/06/30 07:34:35;;;;;;;20.58;13.40;;;23.60;99.90;;;;;;4935579;28;20036;-63
2023/06/30 07:37:00;;;;;;;17.90;12.60;;;23.70;99.90;;;;;;4938894;29;20023;-63
2023/06/30 07:39:26;;;;;;;22.42;14.57;;;23.70;99.90;;;;;;4935525;29;20054;-63
2023/06/30 07:41:52;;;;;;;22.27;14.52;;;23.70;99.90;;;;;;4938206;29;20042;-63
2023/06/30 07:44:19;;;;;;;20.73;12.98;;;23.70;99.90;;;;;;4938722;28;20043;-63
2023/06/30 07:46:45;;;;;;;22.50;14.27;;;23.70;99.90;;;;;;4935908;29;20046;-63
2023/06/30 07:49:11;;;;;;;21.05;14.15;;;23.70;99.90;;;;;;4938329;29;20035;-63
2023/06/30 07:51:37;;;;;;;24.73;14.10;;;23.60;99.90;;;;;;4935584;29;20028;-63
2023/06/30 07:54:03;;;;;;;23.20;15.38;;;23.60;99.90;;;;;;4942686;28;20044;-63
2023/06/30 07:56:28;;;;;;;20.70;14.90;;;23.60;99.90;;;;;;4941307;28;20030;-63
2023/06/30 07:58:54;;;;;;;20.77;13.73;;;23.70;99.90;;;;;;4938605;28;20059;-63
2023/06/30 08:01:20;;;;;;;21.80;14.52;;;23.80;99.90;;;;;;4936240;28;20062;-63
2023/06/30 08:03:48;;;;;;;26.98;16.95;;;24.10;99.90;;;;;;4935466;29;20079;-63
2023/06/30 08:06:14;;;;;;;23.33;15.13;;;24.30;99.90;;;;;;4937409;29;20471;-62
2023/06/30 08:08:39;;;;;;;23.98;15.68;;;24.40;99.90;;;;;;4935911;29;20036;-62
2023/06/30 08:11:05;;;;;;;24.52;15.43;;;24.50;99.90;;;;;;4937459;29;20047;-63
2023/06/30 08:13:31;;;;;;;27.00;16.80;;;24.50;99.90;;;;;;4935444;29;20114;-63
2023/06/30 08:15:57;;;;;;;23.15;14.60;;;24.50;99.90;;;;;;4937636;28;20023;-63
2023/06/30 08:18:23;;;;;;;25.85;14.73;;;24.50;99.90;;;;;;4936519;29;20891;-62
2023/06/30 08:20:48;;;;;;;22.40;14.77;;;24.40;99.90;;;;;;4938108;29;20055;-63
2023/06/30 08:23:14;;;;;;;28.40;16.50;;;24.40;99.90;;;;;;4937909;29;20066;-63
2023/06/30 08:25:40;;;;;;;22.52;14.90;;;24.30;99.90;;;;;;4937024;29;20035;-63
2023/06/30 08:28:06;;;;;;;26.00;16.20;;;24.20;99.90;;;;;;4940146;29;20066;-63
2023/06/30 08:30:32;;;;;;;27.63;16.88;;;24.10;99.90;;;;;;4922580;29;20469;-63
2023/06/30 08:32:57;;;;;;;22.90;15.35;;;24.10;99.90;;;;;;4938111;28;20082;-63
2023/06/30 08:35:23;;;;;;;36.55;16.85;;;24.00;99.90;;;;;;4934660;29;20802;-63
2023/06/30 08:37:49;;;;;;;24.95;16.55;;;23.90;99.90;;;;;;4937854;29;20058;-63
2023/06/30 08:40:25;;;;;;;26.48;14.10;;;23.90;99.90;;;;;;4936406;29;20050;-62
2023/06/30 08:42:53;;;;;;;25.77;15.75;;;23.80;99.90;;;;;;4935681;29;20783;-62
2023/06/30 08:45:26;;;;;;;24.00;15.65;;;23.70;99.90;;;;;;4937755;28;20039;-63
2023/06/30 08:47:52;;;;;;;26.65;16.77;;;23.60;99.90;;;;;;4937997;29;20031;-62
2023/06/30 08:50:21;;;;;;;23.52;14.50;;;23.60;99.90;;;;;;4935189;29;20118;-62
2023/06/30 08:52:47;;;;;;;23.75;14.95;;;23.50;99.90;;;;;;4937268;28;20027;-63
2023/06/30 08:55:13;;;;;;;25.83;15.52;;;23.50;99.90;;;;;;4937665;29;20054;-63
2023/06/30 08:57:41;;;;;;;24.77;15.40;;;23.50;99.90;;;;;;4933585;29;20023;-63
2023/06/30 09:00:07;;;;;;;24.40;15.60;;;23.50;99.90;;;;;;4937210;29;20376;-63
2023/06/30 09:02:34;;;;;;;25.55;17.23;;;23.40;99.90;;;;;;4933321;29;20046;-63
2023/06/30 09:05:02;;;;;;;23.00;16.05;;;23.30;99.90;;;;;;4936555;29;20062;-63
2023/06/30 09:07:33;;;;;;;22.30;15.48;;;23.30;99.90;;;;;;4934158;29;20036;-62
2023/06/30 09:10:05;;;;;;;22.95;15.63;;;23.20;99.90;;;;;;4935562;29;20153;-63
2023/06/30 09:12:31;;;;;;;25.63;16.45;;;23.20;99.90;;;;;;4934815;29;20032;-62
2023/06/30 09:14:59;;;;;;;22.38;15.43;;;23.30;99.90;;;;;;4936861;29;20046;-62
2023/06/30 09:17:26;;;;;;;22.30;15.13;;;23.30;99.90;;;;;;4936759;28;20027;-62
2023/06/30 09:19:52;;;;;;;23.52;15.10;;;23.30;99.90;;;;;;4936169;28;20056;-63
2023/06/30 09:22:20;;;;;;;23.75;13.88;;;23.30;99.90;;;;;;4934286;29;20115;-63
2023/06/30 09:24:47;;;;;;;21.35;14.38;;;23.30;99.90;;;;;;4936154;29;20036;-62
2023/06/30 09:27:13;;;;;;;19.40;13.02;;;23.30;99.90;;;;;;4933638;29;20035;-62
2023/06/30 09:29:39;;;;;;;18.25;12.18;;;23.40;99.90;;;;;;4936031;29;20534;-62
2023/06/30 09:32:05;;;;;;;20.05;13.00;;;23.40;99.90;;;;;;4937008;29;20074;-62
2023/06/30 09:34:31;;;;;;;24.92;13.60;;;23.50;99.90;;;;;;4933710;29;20058;-62
2023/06/30 09:36:57;;;;;;;18.90;11.98;;;23.60;99.90;;;;;;4938737;29;20443;-63
2023/06/30 09:39:23;;;;;;;17.95;11.35;;;23.70;99.90;;;;;;4933504;29;20138;-62
2023/06/30 09:41:51;;;;;;;18.35;11.00;;;23.80;99.90;;;;;;4936061;29;20051;-62
2023/06/30 09:44:20;;;;;;;20.13;12.13;;;23.90;99.90;;;;;;4933077;29;20050;-63
2023/06/30 09:46:50;;;;;;;16.67;11.20;;;24.00;99.90;;;;;;4941080;29;20035;-62
2023/06/30 09:49:32;;;;;;;15.65;10.45;;;24.00;99.90;;;;;;4936827;29;20039;-62
2023/06/30 09:52:01;;;;;;;17.52;11.27;;;24.00;99.90;;;;;;4935229;29;20039;-62
2023/06/30 09:54:29;;;;;;;13.68;9.70;;;23.90;99.90;;;;;;4935507;29;20051;-62
2023/06/30 09:57:01;;;;;;;17.92;11.73;;;23.90;99.90;;;;;;4936150;28;20076;-63
2023/06/30 09:59:27;;;;;;;17.90;11.95;;;23.80;99.90;;;;;;4938257;29;20038;-62
2023/06/30 10:01:57;;;;;;;16.10;11.27;;;23.70;99.90;;;;;;4939480;29;20027;-62
2023/06/30 10:04:24;;;;;;;18.45;11.18;;;23.60;99.90;;;;;;4936847;28;20035;-62
2023/06/30 10:06:51;;;;;;;15.93;11.43;;;23.50;99.90;;;;;;4940136;29;20131;-62
2023/06/30 10:09:20;;;;;;;17.60;10.55;;;23.30;99.90;;;;;;4938819;29;20049;-62
2023/06/30 10:11:50;;;;;;;13.25;9.65;;;23.20;99.90;;;;;;4937635;29;20791;-62
2023/06/30 10:14:20;;;;;;;16.50;11.55;;;23.10;99.90;;;;;;4937407;29;20090;-63
2023/06/30 10:16:47;;;;;;;15.40;10.77;;;23.00;99.90;;;;;;4938559;29;20031;-63
2023/06/30 10:19:14;;;;;;;17.17;11.70;;;22.80;99.90;;;;;;4937420;29;20040;-63
2023/06/30 10:21:41;;;;;;;21.13;12.80;;;22.70;99.90;;;;;;4935538;29;20042;-62
2023/06/30 10:24:09;;;;;;;19.00;12.15;;;22.60;99.90;;;;;;4930502;28;20046;-64
2023/06/30 10:26:36;;;;;;;20.08;11.85;;;22.40;99.90;;;;;;4939811;28;20047;-66
2023/06/30 10:29:03;;;;;;;22.92;13.75;;;22.30;99.90;;;;;;4939015;29;20035;-65
2023/06/30 10:31:31;;;;;;;29.10;18.60;;;22.10;99.90;;;;;;4939184;29;20035;-65
2023/06/30 10:33:57;;;;;;;34.20;21.65;;;22.00;99.90;;;;;;4939312;29;20035;-65
2023/06/30 10:36:25;;;;;;;35.92;24.17;;;22.00;99.90;;;;;;4935385;29;20042;-65
2023/06/30 10:38:51;;;;;;;42.63;26.58;;;22.00;99.90;;;;;;4939265;29;20426;-65
2023/06/30 10:41:19;;;;;;;33.60;21.77;;;22.00;99.90;;;;;;4935283;29;20741;-65
2023/06/30 10:44:03;;;;;;;23.63;14.82;;;22.00;99.90;;;;;;4939896;29;20363;-65
2023/06/30 10:46:48;;;;;;;22.90;14.95;;;22.10;99.90;;;;;;4934731;29;20138;-65
2023/06/30 10:49:25;;;;;;;28.05;14.70;;;22.20;99.90;;;;;;4939223;29;20031;-65
2023/06/30 10:51:52;;;;;;;22.67;14.10;;;22.20;99.90;;;;;;4941377;29;20038;-65
2023/06/30 10:54:26;;;;;;;20.98;13.20;;;22.20;99.90;;;;;;4936325;29;20039;-65
2023/06/30 10:57:04;;;;;;;21.80;12.88;;;22.20;99.90;;;;;;4939828;28;20054;-65
2023/06/30 10:59:37;;;;;;;21.95;13.73;;;22.20;99.90;;;;;;4937377;28;20028;-64
2023/06/30 11:02:12;;;;;;;20.40;13.00;;;22.10;99.90;;;;;;4939215;29;20188;-65
2023/06/30 11:04:40;;;;;;;21.77;14.68;;;22.10;99.90;;;;;;4938837;29;20042;-66
2023/06/30 11:07:07;;;;;;;19.05;13.60;;;22.10;99.90;;;;;;4938227;29;20043;-65
2023/06/30 11:09:50;;;;;;;24.17;15.23;;;22.20;99.90;;;;;;4938037;28;20035;-64
2023/06/30 11:12:46;;;;;;;27.60;16.33;;;22.30;99.90;;;;;;4936650;28;20474;-65
2023/06/30 11:15:28;;;;;;;26.60;17.35;;;22.40;99.90;;;;;;4938529;29;20086;-65
2023/06/30 11:17:54;;;;;;;24.27;15.93;;;22.40;99.90;;;;;;4939858;29;20032;-65
2023/06/30 11:20:26;;;;;;;27.27;16.98;;;22.50;99.90;;;;;;4937662;29;20031;-65
2023/06/30 11:22:57;;;;;;;25.38;17.13;;;22.50;99.90;;;;;;4936588;29;20469;-66
2023/06/30 11:25:23;;;;;;;25.48;17.13;;;22.50;99.90;;;;;;4936641;29;20114;-68
2023/06/30 11:27:50;;;;;;;21.23;13.65;;;22.50;99.90;;;;;;4940012;28;20921;-65
2023/06/30 11:30:19;;;;;;;15.77;9.73;;;22.30;99.90;;;;;;4935317;28;20114;-65
2023/06/30 11:32:46;;;;;;;21.00;10.32;;;22.10;99.90;;;;;;4938172;28;20039;-65
2023/06/30 11:35:13;;;;;;;13.45;8.15;;;21.90;99.90;;;;;;4938486;29;20039;-65
2023/06/30 11:37:39;;;;;;;13.43;9.02;;;21.80;99.90;;;;;;4938205;29;20028;-65
2023/06/30 11:40:06;;;;;;;13.50;8.95;;;21.70;99.90;;;;;;4938366;29;20109;-65
2023/06/30 11:42:35;;;;;;;9.73;6.88;;;21.60;99.90;;;;;;4935407;29;20475;-64
2023/06/30 11:45:02;;;;;;;9.90;6.00;;;21.60;99.90;;;;;;4937713;29;20674;-64
2023/06/30 11:47:28;;;;;;;8.25;5.55;;;21.50;99.90;;;;;;4935590;29;20043;-65
2023/06/30 11:49:53;;;;;;;7.00;5.53;;;21.50;99.90;;;;;;4938414;29;20037;-65
2023/06/30 11:52:20;;;;;;;8.82;4.90;;;21.50;99.90;;;;;;4933185;28;20138;-65
2023/06/30 11:54:46;;;;;;;7.00;5.22;;;21.50;99.90;;;;;;4942030;28;20114;-65
2023/06/30 11:57:12;;;;;;;6.78;4.72;;;21.50;99.90;;;;;;4940089;28;20036;-65
2023/06/30 11:59:38;;;;;;;6.75;5.32;;;21.50;99.90;;;;;;4952125;28;20027;-65
2023/06/30 12:02:04;;;;;;;9.80;5.78;;;21.50;99.90;;;;;;4937229;28;20075;-65
2023/06/30 12:04:34;;;;;;;12.88;9.30;;;21.50;99.90;;;;;;4940183;28;20084;-65
2023/06/30 12:07:03;;;;;;;15.05;10.05;;;21.50;99.90;;;;;;4937782;28;20035;-65
2023/06/30 12:09:29;;;;;;;12.38;8.20;;;21.60;99.90;;;;;;4937126;28;20031;-65
2023/06/30 12:11:56;;;;;;;14.27;9.40;;;21.60;99.90;;;;;;4944107;28;20042;-65
2023/06/30 12:14:25;;;;;;;17.27;10.10;;;21.60;99.90;;;;;;4943579;28;20508;-65
2023/06/30 12:16:54;;;;;;;12.90;8.77;;;21.60;99.90;;;;;;4933523;28;20031;-66
2023/06/30 12:19:27;;;;;;;13.30;9.15;;;21.60;99.90;;;;;;4932705;28;20047;-66
2023/06/30 12:22:03;;;;;;;18.10;11.70;;;21.60;99.90;;;;;;4938026;28;20171;-65
2023/06/30 12:24:29;;;;;;;;;;;21.60;99.90;;;;;;4937205;28;20813;-65
2023/06/30 12:26:55;;;;;;;10.35;6.63;;;21.70;99.90;;;;;;4936425;29;19915;-65
2023/06/30 12:29:22;;;;;;;9.05;6.13;;;21.60;99.90;;;;;;4970593;23;20564;-65